Terminal Aerodrome Forecast
Issued by NWS

Home | Current Version | Previous Version | Text Only | Print | Product List | Glossary On
Versions: 1 2 3 4 5 6 7 8 9 10 11 12 13 14 15 16
000
FTUS44 KLZK 261100
TAFBPK
TAF
KBPK 261123Z 2612/2712 17006KT P6SM BKN035 WS020/22035KT
     FM261800 15007KT P6SM OVC015
     FM270200 15012KT P6SM VCSH OVC012
     FM271000 17003KT 5SM BR VCSH OVC010=

USA.gov is the U.S. government's official web portal to all federal, state and local government web resources and services.